createdAt,value
2017-04-01T00:03:24.565Z,35.32
2017-04-01T00:07:24.522Z,34.55
2017-04-01T00:11:24.811Z,34.07
2017-04-01T00:13:26.606Z,34.07
2017-04-01T00:17:26.481Z,34.57
2017-04-01T00:21:26.597Z,34.55
2017-04-01T00:25:26.420Z,34.65
2017-04-01T00:29:26.452Z,35.03
2017-04-01T00:33:26.362Z,35.51
2017-04-01T00:39:02.440Z,35.22
2017-04-01T00:44:30.123Z,34.75
2017-04-01T00:48:30.111Z,35.32
2017-04-01T00:52:30.088Z,34.55
2017-04-01T00:56:30.124Z,33.86
2017-04-01T01:02:06.243Z,33.67
2017-04-01T01:06:06.139Z,33.96
2017-04-01T01:10:06.112Z,34.06
2017-04-01T01:14:06.015Z,34.71
2017-04-01T01:18:05.911Z,35.48
2017-04-01T01:22:06.208Z,35.67
2017-04-01T01:26:06.135Z,36.44
2017-04-01T01:30:07.019Z,36.72
2017-04-01T01:34:06.944Z,37.4
2017-04-01T01:38:06.760Z,37.85
2017-04-01T01:42:06.627Z,37.95
2017-04-01T01:47:42.635Z,37.95
2017-04-01T01:51:43.266Z,37.68
2017-04-01T01:55:26.363Z,37.78
2017-04-01T01:59:26.206Z,37.68
2017-04-01T02:03:26.075Z,37.97
2017-04-01T02:07:25.942Z,38.62
2017-04-01T02:13:02.288Z,38.14
2017-04-01T02:16:53.764Z,38.05
2017-04-01T02:20:45.149Z,37.47
2017-04-01T02:24:44.985Z,38.7
2017-04-01T02:28:44.807Z,39.56
2017-04-01T02:34:21.125Z,40.04
2017-04-01T02:38:20.908Z,40.52
2017-04-01T02:42:20.724Z,40.42
2017-04-01T02:46:20.487Z,40.61
2017-04-01T02:50:11.910Z,40.33
2017-04-01T02:54:12.120Z,40.04
2017-04-01T02:58:11.940Z,39.94
2017-04-01T03:02:11.775Z,40.04
2017-04-01T03:06:11.568Z,40.33
2017-04-01T03:10:11.411Z,40.52
2017-04-01T03:15:48.541Z,40.23
2017-04-01T03:19:48.238Z,40.42
2017-04-01T03:25:24.142Z,40.52
2017-04-01T03:31:00.463Z,40.31
2017-04-01T03:35:00.249Z,40.31
2017-04-01T03:38:59.996Z,40.21
2017-04-01T03:42:59.851Z,39.64
2017-04-01T03:46:59.596Z,40.88
2017-04-01T03:50:59.423Z,41.34
2017-04-01T03:54:59.164Z,41.63
2017-04-01T03:58:58.868Z,41.44
2017-04-01T04:04:34.803Z,41.72
2017-04-01T04:08:35.407Z,42.11
2017-04-01T04:12:35.062Z,41.44
2017-04-01T04:16:34.784Z,41.91
2017-04-01T04:20:35.524Z,44
2017-04-01T04:24:35.241Z,43.9
2017-04-01T04:28:34.966Z,45.31
2017-04-01T04:32:34.660Z,45.51
2017-04-01T04:36:34.388Z,45.34
2017-04-01T04:40:38.134Z,44.57
2017-04-01T04:44:37.650Z,44.57
2017-04-01T04:48:37.352Z,44.95
2017-04-01T04:54:13.155Z,44.09
2017-04-01T04:58:13.002Z,44.19
2017-04-01T05:02:12.872Z,44.19
2017-04-01T05:06:12.582Z,43.33
2017-04-01T05:08:14.319Z,43.23
2017-04-01T05:10:16.958Z,42.97
2017-04-01T05:14:16.790Z,42.97
2017-04-01T05:18:16.496Z,43.16
2017-04-01T05:23:52.762Z,43.06
2017-04-01T05:27:53.662Z,43.06
2017-04-01T05:31:53.412Z,42.87
2017-04-01T05:35:53.603Z,42.22
2017-04-01T05:43:06.749Z,42.03
2017-04-01T05:47:06.636Z,41.91
2017-04-01T05:51:06.398Z,42.49
2017-04-01T05:55:06.988Z,41.94
2017-04-01T05:59:06.757Z,42.4
2017-04-01T06:03:06.485Z,42.97
2017-04-01T06:07:06.145Z,44.38
2017-04-01T06:11:06.001Z,44.57
2017-04-01T06:16:41.826Z,45.34
2017-04-01T06:22:26.742Z,45.62
2017-04-01T06:26:26.458Z,44.59
2017-04-01T06:30:26.314Z,44.79
2017-04-01T06:36:02.961Z,45.07
2017-04-01T06:41:30.479Z,44.4
2017-04-01T06:45:30.325Z,43.56
2017-04-01T06:51:14.738Z,42.44
2017-04-01T06:55:14.559Z,41.6
2017-04-01T06:59:14.393Z,40.27
2017-04-01T07:03:14.221Z,38.01
2017-04-01T07:07:15.637Z,35.83
2017-04-01T07:09:17.394Z,34.23
2017-04-01T07:13:17.398Z,29.31
2017-04-01T07:17:09.869Z,27.6
2017-04-01T07:21:10.140Z,19.7
2017-04-01T07:25:10.671Z,19.99
2017-04-01T07:29:11.270Z,18.47
2017-04-01T07:33:11.965Z,19.4
2017-04-01T07:37:12.740Z,22.16
2017-04-01T07:39:14.633Z,24.84
2017-04-01T07:43:15.358Z,29.97
2017-04-01T07:47:10.465Z,32.06
2017-04-01T07:51:10.948Z,31.49
2017-04-01T07:55:11.293Z,31.98
2017-04-01T07:58:58.152Z,30.76
2017-04-01T08:02:58.499Z,30
2017-04-01T08:06:50.396Z,30.29
2017-04-01T08:10:50.902Z,31.62
2017-04-01T08:16:27.903Z,31.7
2017-04-01T08:20:14.468Z,30.4
2017-04-01T08:24:14.851Z,31.52
2017-04-01T08:28:15.278Z,31.06
2017-04-01T08:32:02.754Z,29.91
2017-04-01T08:36:04.280Z,30.96
2017-04-01T08:40:04.492Z,31.07
2017-04-01T08:44:04.988Z,32.29
2017-04-01T08:48:05.438Z,31.56
2017-04-01T08:52:05.822Z,32.21
2017-04-01T08:56:06.751Z,34.48
2017-04-01T09:00:07.151Z,33.74
2017-04-01T09:04:07.457Z,33.55
2017-04-01T09:08:00.095Z,33.18
2017-04-01T09:11:51.983Z,33.28
2017-04-01T09:15:52.456Z,33.09
2017-04-01T09:18:16.508Z,32.7
2017-04-01T09:20:40.679Z,30.91
2017-04-01T09:23:04.823Z,29.67
2017-04-01T09:25:28.966Z,28.91
2017-04-01T09:27:53.179Z,28.44
2017-04-01T09:30:17.309Z,28.05
2017-04-01T09:32:41.587Z,27.96
2017-04-01T09:35:05.922Z,28.23
2017-04-01T09:37:31.279Z,29.38
2017-04-01T09:39:55.553Z,29.57
2017-04-01T09:42:19.821Z,30.72
2017-04-01T09:44:44.018Z,32.15
2017-04-01T09:47:08.298Z,31.57
2017-04-01T09:49:32.487Z,33.09
2017-04-01T09:51:48.259Z,30.44
2017-04-01T09:54:13.419Z,30.04
2017-04-01T09:56:38.670Z,30.82
2017-04-01T09:59:02.889Z,30.72
2017-04-01T10:01:27.127Z,30.91
2017-04-01T10:03:51.376Z,29.49
2017-04-01T10:06:15.597Z,28.26
2017-04-01T10:08:39.893Z,28.54
2017-04-01T10:11:04.114Z,29.59
2017-04-01T10:13:28.413Z,29.88
2017-04-01T10:15:53.741Z,29.69
2017-04-01T10:18:18.041Z,29.1
2017-04-01T10:20:42.342Z,27.97
2017-04-01T10:23:06.665Z,26.54
2017-04-01T10:25:30.890Z,30.07
2017-04-01T10:27:46.733Z,29.5
2017-04-01T10:30:11.077Z,28.73
2017-04-01T10:32:35.393Z,29.02
2017-04-01T10:34:59.671Z,29.49
2017-04-01T10:37:24.055Z,29.8
2017-04-01T10:39:25.421Z,29.8
2017-04-01T10:41:49.758Z,30.08
2017-04-01T10:44:14.064Z,31.6
2017-04-01T10:46:38.337Z,31.59
2017-04-01T10:49:02.659Z,31.6
2017-04-01T10:51:26.899Z,31.49
2017-04-01T10:53:51.211Z,31.68
2017-04-01T10:56:15.507Z,31.6
2017-04-01T10:58:39.752Z,30.55
2017-04-01T11:01:04.014Z,31.41
2017-04-01T11:03:28.304Z,30.75
2017-04-01T11:05:52.537Z,31.51
2017-04-01T11:08:16.778Z,31.6
2017-04-01T11:10:41.998Z,31.23
2017-04-01T11:13:06.288Z,28.96
2017-04-01T11:15:30.561Z,27.71
2017-04-01T11:17:54.847Z,29.7
2017-04-01T11:20:19.043Z,28.18
2017-04-01T11:22:43.308Z,27.89
2017-04-01T11:25:07.621Z,28.83
2017-04-01T11:27:31.943Z,28.34
2017-04-01T11:31:32.056Z,27.78
2017-04-01T11:33:56.401Z,27.79
2017-04-01T11:36:20.762Z,27.78
2017-04-01T11:38:45.125Z,28.15
2017-04-01T11:41:09.378Z,27.49
2017-04-01T11:43:33.751Z,26.84
2017-04-01T11:45:58.063Z,27.37
2017-04-01T11:48:23.404Z,27.58
2017-04-01T11:50:48.748Z,27.58
2017-04-01T11:53:13.080Z,27.01
2017-04-01T11:55:37.430Z,26.82
2017-04-01T11:58:01.790Z,26.07
2017-04-01T12:00:27.089Z,26.74
2017-04-01T12:02:51.471Z,26.64
2017-04-01T12:05:15.794Z,28.64
2017-04-01T12:07:40.141Z,28.94
2017-04-01T12:10:04.498Z,29.32
2017-04-01T12:12:29.904Z,29.6
2017-04-01T12:14:54.249Z,27.51
2017-04-01T12:17:18.527Z,28.47
2017-04-01T12:19:42.892Z,28.49
2017-04-01T12:22:09.229Z,28.96
2017-04-01T12:24:33.514Z,28.3
2017-04-01T12:26:58.874Z,27.35
2017-04-01T12:29:23.165Z,26.48
2017-04-01T12:31:47.517Z,27.03
2017-04-01T12:34:11.939Z,27.98
2017-04-01T12:36:42.923Z,26.84
2017-04-01T12:38:58.824Z,27.97
2017-04-01T12:41:24.184Z,27.68
2017-04-01T12:43:48.539Z,25.95
2017-04-01T12:46:12.892Z,26.35
2017-04-01T12:48:37.251Z,26.35
2017-04-01T12:51:01.699Z,25.98
2017-04-01T12:53:26.083Z,24.83
2017-04-01T12:55:50.493Z,23.28
2017-04-01T12:58:14.893Z,23.2
2017-04-01T13:00:39.563Z,22.81
2017-04-01T13:03:04.017Z,23.94
2017-04-01T13:05:28.503Z,23.72
2017-04-01T13:07:52.873Z,22.48
2017-04-01T13:10:17.363Z,23.24
2017-04-01T13:12:27.331Z,23.53
2017-04-01T13:14:51.800Z,22.56
2017-04-01T13:17:16.184Z,22.84
2017-04-01T13:19:40.573Z,23.7
2017-04-01T13:22:04.971Z,22.84
2017-04-01T13:24:29.363Z,22.74
2017-04-01T13:26:53.751Z,22.94
2017-04-01T13:29:18.138Z,22.92
2017-04-01T13:31:42.528Z,22.92
2017-04-01T13:33:58.416Z,22.37
2017-04-01T13:36:14.403Z,22.26
2017-04-01T13:38:30.421Z,22.94
2017-04-01T13:40:40.386Z,22.45
2017-04-01T13:43:04.725Z,21.68
2017-04-01T13:45:29.131Z,21.88
2017-04-01T13:47:53.510Z,21.86
2017-04-01T13:50:17.797Z,22.84
2017-04-01T13:52:20.308Z,22.94
2017-04-01T13:54:44.774Z,23.4
2017-04-01T13:57:00.653Z,21.77
2017-04-01T13:59:25.044Z,20.61
2017-04-01T14:01:49.435Z,19.84
2017-04-01T14:04:13.721Z,19.74
2017-04-01T14:06:38.097Z,19.55
2017-04-01T14:08:53.999Z,19.45
2017-04-01T14:11:09.892Z,19.35
2017-04-01T14:13:34.280Z,19.83
2017-04-01T14:15:58.558Z,19.84
2017-04-01T14:18:22.958Z,19.74
2017-04-01T14:20:47.248Z,21.08
2017-04-01T14:23:11.531Z,20.12
2017-04-01T14:27:12.261Z,20.21
2017-04-01T14:29:36.666Z,21.09
2017-04-01T14:31:52.561Z,20.89
2017-04-01T14:34:16.954Z,21.19
2017-04-01T14:36:41.338Z,20.89
2017-04-01T14:38:57.222Z,21.66
2017-04-01T14:41:21.544Z,21.66
2017-04-01T14:43:45.905Z,21.77
2017-04-01T14:46:10.288Z,21.94
2017-04-01T14:48:34.578Z,22.33
2017-04-01T14:50:58.856Z,22.71
2017-04-01T14:53:23.169Z,22.33
2017-04-01T14:55:50.523Z,22.89
2017-04-01T14:58:15.069Z,23
2017-04-01T15:00:39.117Z,22.71
2017-04-01T15:03:03.396Z,21.75
2017-04-01T15:05:27.700Z,23.87
2017-04-01T15:07:52.427Z,24.08
2017-04-01T15:10:16.528Z,23.98
2017-04-01T15:12:42.212Z,23.02
2017-04-01T15:15:06.856Z,23.12
2017-04-01T15:17:09.057Z,23.8
2017-04-01T15:19:36.391Z,22.91
2017-04-01T15:22:00.960Z,23.21
2017-04-01T15:24:25.304Z,22.16
2017-04-01T15:26:49.684Z,22.92
2017-04-01T15:29:13.938Z,23.79
2017-04-01T15:31:29.778Z,23.11
2017-04-01T15:33:54.219Z,25.1
2017-04-01T15:36:04.686Z,25.1
2017-04-01T15:38:29.079Z,24.63
2017-04-01T15:40:44.800Z,24.84
2017-04-01T15:43:09.045Z,25.59
2017-04-01T15:45:24.752Z,26.45
2017-04-01T15:47:48.932Z,26.55
2017-04-01T15:50:13.270Z,26.75
2017-04-01T15:52:37.531Z,27.6
2017-04-01T15:55:01.701Z,27.5
2017-04-01T15:59:03.543Z,26.93
2017-04-01T16:01:14.062Z,26.35
2017-04-01T16:03:42.648Z,25.1
2017-04-01T16:06:06.939Z,25.39
2017-04-01T16:08:31.491Z,25.1
2017-04-01T16:10:56.900Z,24.73
2017-04-01T16:13:21.004Z,25.57
2017-04-01T16:15:45.121Z,26.34
2017-04-01T16:18:09.287Z,26.64
2017-04-01T16:20:33.436Z,26.75
2017-04-01T16:22:57.532Z,27.59
2017-04-01T16:25:21.721Z,28.36
2017-04-01T16:27:45.942Z,29.13
2017-04-01T16:30:10.113Z,30.38
2017-04-01T16:32:35.366Z,32.18
2017-04-01T16:34:59.554Z,31.7
2017-04-01T16:37:23.691Z,31.9
2017-04-01T16:39:48.732Z,32.76
2017-04-01T16:42:12.968Z,33.71
2017-04-01T16:44:38.158Z,33.42
2017-04-01T16:47:02.308Z,33.71
2017-04-01T16:49:26.843Z,33.42
2017-04-01T16:51:42.993Z,34.29
2017-04-01T16:54:07.074Z,35.33
2017-04-01T16:56:32.110Z,35.71
2017-04-01T16:58:57.639Z,35.52
2017-04-01T17:01:22.663Z,36.18
2017-04-01T17:03:46.814Z,37.7
2017-04-01T17:06:10.806Z,38.09
2017-04-01T17:08:34.764Z,37.99
2017-04-01T17:10:58.941Z,38.09
2017-04-01T17:13:22.838Z,37.6
2017-04-01T17:15:46.753Z,38.16
2017-04-01T17:18:10.700Z,38.64
2017-04-01T17:20:49.401Z,38.74
2017-04-01T17:24:49.810Z,38.35
2017-04-01T17:27:16.301Z,38.45
2017-04-01T17:29:46.996Z,38.34
2017-04-01T17:32:10.875Z,38.72
2017-04-01T17:34:34.703Z,39.18
2017-04-01T17:36:58.605Z,38.79
2017-04-01T17:39:22.536Z,38.79
2017-04-01T17:41:46.316Z,38.53
2017-04-01T17:44:10.212Z,38.79
2017-04-01T17:46:34.001Z,38.79
2017-04-01T17:48:57.986Z,38.7
2017-04-01T17:51:21.652Z,39.95
2017-04-01T17:53:46.494Z,40.23
2017-04-01T17:56:10.307Z,39.95
2017-04-01T17:58:35.130Z,40.23
2017-04-01T18:00:59.009Z,40.43
2017-04-01T18:03:30.719Z,40.41
2017-04-01T18:05:57.267Z,40.7
2017-04-01T18:08:21.136Z,41.27
2017-04-01T18:12:23.319Z,41.37
2017-04-01T18:14:47.294Z,42.02
2017-04-01T18:17:11.169Z,42.61
2017-04-01T18:19:35.049Z,42.5
2017-04-01T18:21:58.976Z,41.93
2017-04-01T18:24:22.946Z,42.02
2017-04-01T18:26:46.890Z,42.11
2017-04-01T18:29:10.788Z,42.11
2017-04-01T18:31:34.735Z,42.4
2017-04-01T18:33:58.389Z,42.69
2017-04-01T18:36:24.114Z,43.24
2017-04-01T18:38:49.717Z,42.47
2017-04-01T18:41:13.499Z,42.57
2017-04-01T18:43:37.624Z,42
2017-04-01T18:46:01.156Z,41.33
2017-04-01T18:48:25.032Z,40.16
2017-04-01T18:50:49.769Z,39.97
2017-04-01T18:53:13.368Z,38.43
2017-04-01T18:55:38.946Z,38.14
2017-04-01T18:58:02.649Z,37.66
2017-04-01T19:00:26.354Z,37.57
2017-04-01T19:02:51.064Z,37.28
2017-04-01T19:05:01.418Z,37.45
2017-04-01T19:07:11.157Z,37.93
2017-04-01T19:09:34.893Z,37.16
2017-04-01T19:11:50.144Z,37.45
2017-04-01T19:13:51.439Z,37.65
2017-04-01T19:16:15.127Z,37.65
2017-04-01T19:18:38.812Z,37.55
2017-04-01T19:21:02.486Z,38.03
2017-04-01T19:23:26.155Z,38.7
2017-04-01T19:25:49.863Z,39.47
2017-04-01T19:28:13.531Z,39.47
2017-04-01T19:30:38.428Z,40.23
2017-04-01T19:33:02.041Z,41.27
2017-04-01T19:35:17.362Z,41.55
2017-04-01T19:37:18.997Z,41.96
2017-04-01T19:39:42.683Z,42.13
2017-04-01T19:42:06.335Z,41.86
2017-04-01T19:44:30.055Z,42.7
2017-04-01T19:46:53.626Z,43.08
2017-04-01T19:50:54.313Z,43.27
2017-04-01T19:53:17.925Z,43.27
2017-04-01T19:55:41.548Z,43.16
2017-04-01T19:58:05.144Z,44.02
2017-04-01T20:00:28.791Z,44.12
2017-04-01T20:02:52.370Z,44.4
2017-04-01T20:05:16.092Z,44.31
2017-04-01T20:07:41.950Z,44.4
2017-04-01T20:10:05.679Z,45.72
2017-04-01T20:12:30.315Z,45.62
2017-04-01T20:14:53.935Z,45.24
2017-04-01T20:17:17.462Z,45.07
2017-04-01T20:19:32.634Z,44.12
2017-04-01T20:21:58.898Z,44.95
2017-04-01T20:24:24.081Z,44.88
2017-04-01T20:26:47.865Z,44.57
2017-04-01T20:29:12.116Z,45.34
2017-04-01T20:31:35.277Z,45.34
2017-04-01T20:33:58.896Z,44.98
2017-04-01T20:36:22.495Z,44.5
2017-04-01T20:38:46.068Z,44.4
2017-04-01T20:41:09.737Z,45.34
2017-04-01T20:43:34.405Z,45.55
2017-04-01T20:45:58.194Z,45.55
2017-04-01T20:48:22.166Z,45.65
2017-04-01T20:50:45.576Z,44.5
2017-04-01T20:53:09.145Z,44.69
2017-04-01T20:55:32.783Z,45.24
2017-04-01T20:57:56.333Z,45.53
2017-04-01T21:00:21.097Z,45.91
2017-04-01T21:02:44.837Z,45.81
2017-04-01T21:05:08.422Z,46.58
2017-04-01T21:07:32.027Z,46.87
2017-04-01T21:09:55.620Z,47.16
2017-04-01T21:12:19.102Z,46.2
2017-04-01T21:14:42.718Z,46.01
2017-04-01T21:16:43.916Z,46.39
2017-04-01T21:19:07.539Z,46.77
2017-04-01T21:21:31.083Z,47.44
2017-04-01T21:23:32.282Z,47.25
2017-04-01T21:25:55.799Z,46.87
2017-04-01T21:28:19.352Z,46.77
2017-04-01T21:30:34.504Z,46.87
2017-04-01T21:32:58.039Z,46.67
2017-04-01T21:35:21.622Z,46.41
2017-04-01T21:37:45.107Z,46.3
2017-04-01T21:40:09.781Z,47.06
2017-04-01T21:42:33.362Z,47.34
2017-04-01T21:44:56.942Z,47.82
2017-04-01T21:47:20.461Z,48.28
2017-04-01T21:49:44.011Z,48.3
2017-04-01T21:52:07.509Z,48.47
2017-04-01T21:54:31.023Z,47.53
2017-04-01T21:56:54.541Z,47.34
2017-04-01T21:59:18.021Z,46.89
2017-04-01T22:01:41.540Z,47.44
2017-04-01T22:04:05.070Z,48.3
2017-04-01T22:06:28.618Z,47.44
2017-04-01T22:08:52.145Z,47.53
2017-04-01T22:11:15.695Z,48.21
2017-04-01T22:13:39.244Z,48.49
2017-04-01T22:16:02.777Z,48.21
2017-04-01T22:18:26.290Z,48.11
2017-04-01T22:20:49.798Z,48.49
2017-04-01T22:23:13.394Z,49.14
2017-04-01T22:25:36.926Z,50.19
2017-04-01T22:28:00.414Z,51.05
2017-04-01T22:30:23.937Z,51.43
2017-04-01T22:32:47.392Z,51.05
2017-04-01T22:35:10.901Z,50.86
2017-04-01T22:37:34.503Z,49.93
2017-04-01T22:39:58.091Z,50.09
2017-04-01T22:42:21.593Z,50.86
2017-04-01T22:44:45.151Z,51.05
2017-04-01T22:47:08.757Z,50.76
2017-04-01T22:49:32.295Z,50.5
2017-04-01T22:51:55.750Z,50.67
2017-04-01T22:54:19.280Z,50.48
2017-04-01T22:56:42.815Z,52.2
2017-04-01T22:59:06.346Z,50.86
2017-04-01T23:01:30.804Z,51.05
2017-04-01T23:03:54.266Z,50.7
2017-04-01T23:06:17.764Z,50.89
2017-04-01T23:08:41.238Z,51.72
2017-04-01T23:11:04.753Z,51.27
2017-04-01T23:13:28.234Z,51.91
2017-04-01T23:15:51.724Z,52.29
2017-04-01T23:18:15.253Z,52.48
2017-04-01T23:20:38.807Z,53.25
2017-04-01T23:23:02.276Z,53.34
2017-04-01T23:25:03.478Z,53.63
2017-04-01T23:27:27.022Z,53.73
2017-04-01T23:29:50.572Z,52.58
2017-04-01T23:32:15.086Z,53.44
2017-04-01T23:34:38.581Z,53.28
2017-04-01T23:37:02.117Z,53.73
2017-04-01T23:39:25.609Z,53.34
2017-04-01T23:41:49.123Z,53.25
2017-04-01T23:44:12.658Z,52.87
2017-04-01T23:46:36.210Z,53.28
2017-04-01T23:48:59.705Z,53.34
2017-04-01T23:51:23.224Z,52.42
2017-04-01T23:53:46.733Z,53.16
2017-04-01T23:56:10.240Z,53.06
2017-04-01T23:58:33.769Z,53.18
